Time;durP1;ratioP1;P1;durP2;ratioP2;P2;SDS_P1;SDS_P2;PMS_P1;PMS_P2;Temp;Humidity;BMP_temperature;BMP_pressure;BME280_temperature;BME280_humidity;BME280_pressure;Samples;Min_cycle;Max_cycle;Signal;HPM_P1;HPM_P2
2023/01/11 00:05:10;;;;;;;30.30;21.90;;;;;;;3.21;100.00;99848.74;450090;1253;142729;-63
2023/01/11 00:15:16;;;;;;;33.90;22.40;;;;;;;3.23;100.00;99847.48;449274;1252;153513;-63
2023/01/11 00:25:22;;;;;;;30.30;22.40;;;;;;;3.28;100.00;99849.91;442488;1254;142042;-63
2023/01/11 00:35:30;;;;;;;36.70;22.10;;;;;;;3.27;100.00;99860.34;450039;1252;142556;-63
2023/01/11 00:56:05;;;;;;;29.80;23.30;;;;;;;3.25;100.00;99866.80;450083;1252;142522;-63
2023/01/11 01:06:11;;;;;;;38.60;22.90;;;;;;;3.24;100.00;99875.80;450170;1252;141877;-63
2023/01/11 01:16:18;;;;;;;38.90;25.80;;;;;;;3.28;100.00;99876.21;449665;1255;206836;-63
2023/01/11 01:26:24;;;;;;;36.70;24.20;;;;;;;3.30;100.00;99869.92;450220;1253;142125;-64
2023/01/11 01:36:30;;;;;;;34.30;25.40;;;;;;;3.34;100.00;99862.05;449442;1252;143447;-63
2023/01/11 01:46:36;;;;;;;37.40;26.50;;;;;;;3.37;100.00;99851.21;450194;1252;142412;-63
2023/01/11 01:56:48;;;;;;;35.10;25.30;;;;;;;3.37;100.00;99836.33;448631;1252;141949;-63
2023/01/11 02:06:59;;;;;;;38.00;27.80;;;;;;;3.36;100.00;99826.67;449364;1252;143507;-62
2023/01/11 02:17:05;;;;;;;37.60;24.90;;;;;;;3.27;100.00;99824.14;450195;1252;142506;-63
2023/01/11 02:27:26;;;;;;;44.70;26.90;;;;;;;3.16;100.00;99819.30;440226;1257;142201;-62
2023/01/11 02:37:41;;;;;;;45.10;32.50;;;;;;;3.08;100.00;99828.53;449814;1252;200007;-62
2023/01/11 02:47:50;;;;;;;50.80;33.30;;;;;;;3.05;100.00;99836.02;450186;1252;141113;-63
2023/01/11 02:58:00;;;;;;;49.50;33.10;;;;;;;3.07;100.00;99837.38;449367;1257;142216;-64
2023/01/11 03:08:15;;;;;;;49.20;32.50;;;;;;;3.14;100.00;99835.80;450401;1250;144666;-63
2023/01/11 03:18:35;;;;;;;48.50;32.80;;;;;;;3.18;100.00;99831.70;449674;1252;142272;-63
2023/01/11 03:28:52;;;;;;;53.40;33.80;;;;;;;3.14;100.00;99824.02;450286;1252;143408;-63
2023/01/11 03:39:06;;;;;;;55.90;36.90;;;;;;;3.05;100.00;99826.17;450513;1252;187869;-63
2023/01/11 03:49:16;;;;;;;57.50;36.40;;;;;;;2.98;100.00;99814.78;449671;1252;142122;-63
2023/01/11 03:59:22;;;;;;;53.20;36.30;;;;;;;2.90;100.00;99813.30;450451;1251;142165;-62
2023/01/11 04:09:28;;;;;;;56.90;37.80;;;;;;;2.83;100.00;99798.98;449617;1252;141923;-62
2023/01/11 04:19:34;;;;;;;56.90;38.50;;;;;;;2.82;100.00;99800.20;450437;1252;143735;-63
2023/01/11 04:29:40;;;;;;;63.90;39.90;;;;;;;2.79;100.00;99799.79;450356;1252;142494;-63
2023/01/11 04:39:46;;;;;;;55.00;34.60;;;;;;;2.75;100.00;99789.00;449698;1253;142364;-63
2023/01/11 04:49:51;;;;;;;52.90;33.40;;;;;;;2.67;100.00;99787.48;446755;1252;142236;-62
2023/01/11 04:59:57;;;;;;;51.60;32.90;;;;;;;2.66;100.00;99790.98;450405;1252;141500;-62
2023/01/11 05:10:03;;;;;;;52.40;30.00;;;;;;;2.62;100.00;99793.15;449527;1252;142431;-63
2023/01/11 05:20:11;;;;;;;46.10;29.30;;;;;;;2.62;100.00;99787.30;450162;1255;142012;-63
2023/01/11 05:30:17;;;;;;;45.50;27.70;;;;;;;2.60;100.00;99783.38;442359;1253;141662;-63
2023/01/11 05:40:23;;;;;;;41.60;26.70;;;;;;;2.58;100.00;99772.70;450021;1254;142651;-63
2023/01/11 05:50:29;;;;;;;36.50;25.80;;;;;;;2.40;100.00;99761.80;450102;1253;143089;-63
2023/01/11 06:00:35;;;;;;;34.10;24.60;;;;;;;2.38;100.00;99753.92;449290;1254;143105;-64
2023/01/11 06:10:41;;;;;;;34.60;23.70;;;;;;;2.16;100.00;99743.79;440784;1255;142430;-63
2023/01/11 06:20:50;;;;;;;37.30;23.20;;;;;;;2.06;100.00;99734.73;450202;1253;141832;-63
2023/01/11 06:30:58;;;;;;;33.20;22.80;;;;;;;2.04;100.00;99737.53;448092;1252;143543;-62
2023/01/11 06:41:06;;;;;;;30.50;21.20;;;;;;;1.97;100.00;99737.20;450321;1254;142800;-61
2023/01/11 06:51:12;;;;;;;31.30;18.90;;;;;;;1.85;100.00;99735.27;450370;1254;143979;-61
2023/01/11 07:01:19;;;;;;;29.30;19.60;;;;;;;1.78;100.00;99717.81;449924;1255;210148;-62
2023/01/11 07:11:25;;;;;;;28.50;21.10;;;;;;;1.76;100.00;99715.48;450370;1252;144865;-63
2023/01/11 07:21:31;;;;;;;35.20;23.40;;;;;;;1.63;100.00;99708.02;449549;1256;142598;-63
2023/01/11 07:31:37;;;;;;;34.70;21.40;;;;;;;1.64;100.00;99707.14;436608;1256;140959;-62
2023/01/11 07:52:06;;;;;;;32.90;22.90;;;;;;;1.64;100.00;99715.59;449599;1254;142721;-62
2023/01/11 08:02:13;;;;;;;39.30;26.10;;;;;;;1.77;100.00;99716.30;450281;1252;142794;-62
2023/01/11 08:22:42;;;;;;;32.10;23.50;;;;;;;3.92;100.00;99705.53;450256;1252;142128;-63
2023/01/11 08:32:48;;;;;;;38.00;26.20;;;;;;;5.75;100.00;99700.31;439011;1252;143440;-63
2023/01/11 08:42:56;;;;;;;25.40;19.40;;;;;;;7.70;100.00;99694.19;447088;1252;143081;-63
2023/01/11 08:53:02;;;;;;;28.20;20.80;;;;;;;9.32;99.86;99681.43;450255;1254;142858;-62
2023/01/11 09:03:10;;;;;;;20.50;16.10;;;;;;;10.99;96.27;99675.85;450119;1252;142968;-62
2023/01/11 09:13:16;;;;;;;17.40;13.70;;;;;;;11.82;92.56;99664.83;449676;1252;198135;-62
2023/01/11 09:23:22;;;;;;;15.40;13.10;;;;;;;12.81;88.86;99667.08;450253;1252;141583;-62
2023/01/11 09:33:28;;;;;;;16.60;14.80;;;;;;;13.27;85.20;99662.02;449391;1254;141910;-63
2023/01/11 09:43:42;;;;;;;14.30;12.70;;;;;;;13.36;83.04;99656.11;450156;1254;142379;-62
2023/01/11 09:53:51;;;;;;;16.00;12.50;;;;;;;10.81;81.86;99646.23;450212;1252;182254;-63
2023/01/11 10:04:24;;;;;;;;;;;;;;;8.69;82.66;99646.71;449441;1252;142438;-61
2023/01/11 10:14:38;;;;;;;18.90;12.70;;;;;;;7.43;83.59;99636.55;450427;1253;129060;-62
2023/01/11 10:25:17;;;;;;;14.80;11.30;;;;;;;6.40;84.56;99613.25;449475;1252;198484;-62
2023/01/11 10:35:44;;;;;;;16.30;9.80;;;;;;;5.94;85.55;99608.17;450143;1252;141809;-62
2023/01/11 10:45:53;;;;;;;12.00;9.80;;;;;;;5.50;85.50;99605.69;449404;1252;143058;-62
2023/01/11 10:56:08;;;;;;;13.50;9.10;;;;;;;5.13;86.08;99592.66;450221;1250;141953;-62
2023/01/11 11:06:23;;;;;;;13.90;10.40;;;;;;;5.04;86.81;99584.55;448087;1252;142743;-63
2023/01/11 11:16:41;;;;;;;17.60;10.80;;;;;;;5.11;87.07;99567.95;435598;1256;146091;-61
2023/01/11 11:26:57;;;;;;;17.00;11.80;;;;;;;5.09;87.20;99547.21;439670;1252;142320;-62
2023/01/11 11:37:03;;;;;;;16.10;11.50;;;;;;;5.09;87.07;99541.66;432988;1254;141906;-62
2023/01/11 11:47:16;;;;;;;14.00;9.00;;;;;;;5.09;87.22;99519.98;434889;1254;142014;-64
2023/01/11 11:57:26;;;;;;;13.30;8.60;;;;;;;5.27;87.35;99496.63;432561;1256;141513;-62
2023/01/11 12:07:36;;;;;;;7.00;4.40;;;;;;;5.45;86.92;99470.50;433215;1256;142214;-62
2023/01/11 12:18:23;;;;;;;9.20;6.00;;;;;;;5.57;85.40;99451.05;450005;1252;141792;-63
2023/01/11 12:28:50;;;;;;;6.00;5.00;;;;;;;5.63;84.40;99436.00;449768;1252;209165;-63
2023/01/11 12:39:10;;;;;;;5.20;4.10;;;;;;;5.57;83.36;99421.33;450165;1251;142030;-62
2023/01/11 12:49:27;;;;;;;6.80;4.40;;;;;;;5.48;82.99;99412.20;449844;1251;142247;-63
2023/01/11 12:59:56;;;;;;;7.90;5.40;;;;;;;5.37;82.92;99385.59;450155;1251;142564;-62
2023/01/11 13:10:26;;;;;;;5.40;4.50;;;;;;;5.24;82.71;99367.67;449420;1251;141557;-67
2023/01/11 13:20:42;;;;;;;10.10;6.00;;;;;;;5.06;83.34;99346.94;446896;1252;142337;-62
2023/01/11 13:31:09;;;;;;;10.30;6.10;;;;;;;4.89;83.36;99349.95;449212;1252;141722;-61
2023/01/11 13:41:19;;;;;;;10.50;6.60;;;;;;;4.73;83.53;99361.39;444984;1252;152142;-63
2023/01/11 13:51:33;;;;;;;11.20;7.40;;;;;;;4.55;83.60;99355.58;441978;1252;144579;-62
2023/01/11 14:01:48;;;;;;;9.90;7.20;;;;;;;4.35;83.99;99345.84;444011;1252;143453;-62
2023/01/11 14:12:06;;;;;;;9.90;7.50;;;;;;;4.17;84.41;99338.09;450066;1252;141687;-62
2023/01/11 14:22:20;;;;;;;13.60;9.00;;;;;;;3.99;84.99;99350.59;449379;1252;142240;-64
2023/01/11 14:32:42;;;;;;;18.70;13.20;;;;;;;3.81;86.71;99340.73;450250;1252;141877;-63
2023/01/11 14:43:15;;;;;;;19.90;14.60;;;;;;;3.61;88.04;99346.03;449449;1252;143526;-63
2023/01/11 14:53:24;;;;;;;26.80;17.70;;;;;;;3.39;89.34;99335.45;450316;1252;152827;-63
2023/01/11 15:03:42;;;;;;;29.60;17.60;;;;;;;3.20;90.65;99332.37;448490;1252;143962;-63
2023/01/11 15:13:50;;;;;;;27.30;16.50;;;;;;;3.05;91.75;99320.14;450172;1252;141985;-62
2023/01/11 15:23:58;;;;;;;30.70;19.00;;;;;;;2.95;92.56;99313.05;450165;1252;176094;-63
2023/01/11 15:34:17;;;;;;;27.00;19.20;;;;;;;2.93;93.22;99308.77;449467;1252;142741;-62
2023/01/11 15:44:38;;;;;;;27.20;18.40;;;;;;;2.93;93.95;99310.54;450303;1252;143383;-62
2023/01/11 15:55:15;;;;;;;25.70;17.20;;;;;;;2.90;94.42;99308.73;449502;1252;143710;-62
2023/01/11 16:05:25;;;;;;;26.00;19.80;;;;;;;2.85;94.70;99298.55;450222;1252;142460;-63
2023/01/11 16:15:43;;;;;;;28.10;20.20;;;;;;;2.81;94.93;99292.80;444063;1252;142381;-62
2023/01/11 16:25:54;;;;;;;29.10;20.50;;;;;;;2.74;95.37;99289.77;450128;1252;142460;-63
2023/01/11 16:36:14;;;;;;;27.20;19.10;;;;;;;2.69;95.66;99280.64;450374;1252;142778;-63
2023/01/11 16:47:00;;;;;;;29.90;20.80;;;;;;;2.62;95.57;99264.81;449867;1252;211457;-63
2023/01/11 16:57:16;;;;;;;25.30;19.20;;;;;;;2.58;96.10;99256.99;450361;1252;141675;-62
2023/01/11 17:07:26;;;;;;;31.70;19.90;;;;;;;2.50;96.07;99242.44;441496;1252;147675;-63
2023/01/11 17:17:36;;;;;;;25.50;18.20;;;;;;;2.43;96.27;99242.84;450431;1252;142123;-62
2023/01/11 17:27:48;;;;;;;29.90;21.10;;;;;;;2.36;96.40;99241.36;449443;1252;186030;-61
2023/01/11 17:37:57;;;;;;;28.60;18.90;;;;;;;2.32;96.77;99247.23;450365;1252;187879;-62
2023/01/11 17:48:12;;;;;;;26.60;19.40;;;;;;;2.34;96.94;99240.73;450483;1252;142950;-63
2023/01/11 17:58:21;;;;;;;28.30;20.40;;;;;;;2.35;96.86;99235.19;449948;1252;141218;-63
2023/01/11 18:08:27;;;;;;;31.50;22.10;;;;;;;2.30;96.86;99232.42;438424;1254;142658;-60
2023/01/11 18:18:44;;;;;;;29.60;20.00;;;;;;;2.28;96.91;99227.68;448501;1252;142266;-62
2023/01/11 18:28:50;;;;;;;31.90;20.30;;;;;;;2.31;97.00;99226.85;450378;1252;143683;-62
2023/01/11 18:38:56;;;;;;;31.80;21.60;;;;;;;2.37;96.95;99227.16;450377;1252;146404;-62
2023/01/11 18:49:02;;;;;;;31.80;20.90;;;;;;;2.43;96.85;99220.40;449431;1252;143380;-62
2023/01/11 18:59:08;;;;;;;36.40;22.60;;;;;;;2.48;96.75;99214.00;450262;1252;142799;-63
2023/01/11 19:09:13;;;;;;;33.70;23.80;;;;;;;2.56;96.97;99212.33;448761;1251;142261;-63
2023/01/11 19:19:19;;;;;;;26.60;20.60;;;;;;;2.60;96.36;99216.30;450364;1252;142099;-62
2023/01/11 19:29:25;;;;;;;27.10;20.30;;;;;;;2.60;96.47;99204.90;450158;1252;142631;-62
2023/01/11 19:39:31;;;;;;;34.30;24.50;;;;;;;2.62;97.00;99202.77;449231;1252;200577;-62
2023/01/11 19:49:36;;;;;;;34.90;23.80;;;;;;;2.67;97.13;99198.94;436511;1251;142937;-62
2023/01/11 19:59:43;;;;;;;36.70;24.60;;;;;;;2.70;96.95;99206.96;450172;1252;143377;-62
2023/01/11 20:09:48;;;;;;;45.30;26.30;;;;;;;2.72;96.76;99199.30;448002;1250;143230;-63
2023/01/11 20:19:54;;;;;;;31.10;22.50;;;;;;;2.75;97.16;99201.41;446261;1252;143605;-63
2023/01/11 20:30:00;;;;;;;29.50;20.80;;;;;;;2.78;96.88;99204.73;450163;1252;189761;-63
2023/01/11 20:40:07;;;;;;;27.70;18.20;;;;;;;2.94;96.42;99204.48;449428;1252;145158;-63
2023/01/11 20:50:13;;;;;;;23.30;15.50;;;;;;;3.16;96.19;99205.23;450165;1252;141985;-63
2023/01/11 21:00:20;;;;;;;24.50;15.90;;;;;;;3.30;95.94;99201.54;443296;1252;143958;-63
2023/01/11 21:10:27;;;;;;;23.60;16.20;;;;;;;3.36;95.75;99204.07;450223;1252;141460;-62
2023/01/11 21:20:33;;;;;;;24.20;16.40;;;;;;;3.39;95.64;99209.50;450105;1252;141970;-64
2023/01/11 21:30:39;;;;;;;24.00;17.40;;;;;;;3.44;95.34;99208.77;449268;1252;142594;-63
2023/01/11 21:40:45;;;;;;;21.20;14.50;;;;;;;3.49;95.27;99210.29;450071;1252;191756;-63
2023/01/11 21:50:50;;;;;;;21.40;15.10;;;;;;;3.55;95.06;99219.77;450147;1253;142483;-63
2023/01/11 22:00:56;;;;;;;31.10;15.90;;;;;;;3.58;94.89;99228.29;449416;1252;142623;-66
2023/01/11 22:11:04;;;;;;;22.30;12.90;;;;;;;3.61;95.10;99229.36;450210;1252;142610;-62
2023/01/11 22:21:12;;;;;;;17.40;12.70;;;;;;;3.57;96.43;99228.15;450181;1255;141965;-62
2023/01/11 22:31:19;;;;;;;17.30;11.10;;;;;;;3.47;97.51;99227.84;449599;1253;210081;-63
2023/01/11 22:41:25;;;;;;;19.20;11.20;;;;;;;3.39;98.26;99245.11;450228;1254;143038;-62
2023/01/11 22:51:31;;;;;;;13.80;10.70;;;;;;;3.34;98.87;99245.31;440516;1256;142485;-62
2023/01/11 23:01:39;;;;;;;14.60;10.80;;;;;;;3.29;99.81;99241.04;450151;1252;142817;-62
2023/01/11 23:22:09;;;;;;;14.10;9.20;;;;;;;3.28;100.00;99241.77;435429;1256;142198;-63
2023/01/11 23:32:15;;;;;;;11.60;9.10;;;;;;;3.30;100.00;99237.38;434436;1256;153026;-62
2023/01/11 23:42:26;;;;;;;12.70;9.10;;;;;;;3.32;100.00;99239.67;442310;1252;142526;-62
2023/01/11 23:52:32;;;;;;;9.40;7.50;;;;;;;3.39;100.00;99251.52;440689;1253;142995;-63
